Vision of The Seas — C6SE8 — position and weather

sailwx.info

Track history (hours):
 
Tides and Currents Weather Stations Pressure Air Temp Water Temp Dewpoint Dewpoint Depression Visibility Wind Speed Wind Dir Waves Ship Positions

Vision of The Seas

Operator: Royal Caribbean Cruises Ltd

Last reported at 2018-Oct-20 00:00 UTC. Time now 2018-Oct-20 13:11 UTC.
Position N 36°24' W 002°18'.

Type: Passenger vessel. MMSI: 311321000.

Wind from 080 at 26 knots

Barometer 1011.0 mb
Air temperature 19.0 ° C
Visibility: greater than 10.8 NM
Dewpoint 17.5 ° C
Water temperature 23.0 ° C

Date/timePositionNaut miles runAvg speedWind from/ knotsBaromVisibWave heightAir tempDewpointWater temp
2018-Oct-20 00:00N 36°24' W 002°18'4515.1 080 / 261011.010.8 19.017.523.0
2018-Oct-19 21:00N 36°48' W 001°30'4318.1 070 / 12 21.018.021.0
2018-Oct-19 18:36N 37°26' W 001°04'11 1.1
2018-Oct-19 08:50N 37°36' W 000°59'1 3.5
2018-Oct-19 08:28N 37°34' W 000°59'410.3
2018-Oct-19 08:02N 37°32' W 000°55'015.5
2018-Oct-19 08:00N 37°31' W 000°54'816.0
2018-Oct-19 07:30N 37°31' W 000°44'716.1
2018-Oct-19 07:03N 37°34' W 000°36'116.1
2018-Oct-19 07:00N 37°34' W 000°35'1017.1
2018-Oct-19 06:26N 37°41' W 000°26'615.0
2018-Oct-19 06:03N 37°45' W 000°21'116.6
2018-Oct-19 06:00N 37°45' W 000°20'916.7
2018-Oct-19 05:28N 37°52' W 000°13'1016.9
2018-Oct-19 04:52N 38°00' W 000°05'8517.5
2018-Oct-19 00:00N 39°12' E 000°54'11216.7 350 / 101006.0 5.4 20.020.022.0
2018-Oct-18 17:17N 40°53' E 001°56'416.9
2018-Oct-18 17:02N 40°57' E 001°59'017.0
2018-Oct-18 17:00N 40°57' E 001°59'917.3
2018-Oct-18 16:30N 41°05' E 002°05'817.6
2018-Oct-18 16:03N 41°12' E 002°09'117.9
2018-Oct-18 16:00N 41°13' E 002°09'713.7
2018-Oct-18 15:30N 41°20' E 002°10'2 4.2
2018-Oct-18 15:03N 41°22' E 002°11'0 0.0
2018-Oct-18 15:00N 41°22' E 002°11'0 0.0
2018-Oct-18 14:30N 41°22' E 002°11'0 0.0
2018-Oct-18 14:00N 41°22' E 002°11'0 0.0
2018-Oct-18 13:30N 41°22' E 002°11'0 0.0
2018-Oct-18 13:03N 41°22' E 002°11'0 0.0
2018-Oct-18 13:00N 41°22' E 002°11'0 0.0
2018-Oct-18 12:30N 41°22' E 002°11'0 0.0
2018-Oct-18 12:03N 41°22' E 002°11'0 0.0
2018-Oct-18 12:00N 41°22' E 002°11'0 0.0
2018-Oct-18 11:30N 41°22' E 002°11'0 0.0
2018-Oct-18 11:03N 41°22' E 002°11'0 0.0
2018-Oct-18 11:00N 41°22' E 002°11'0 0.0
2018-Oct-18 10:30N 41°22' E 002°11'0 0.0
2018-Oct-18 10:03N 41°22' E 002°11'0 0.0
2018-Oct-18 10:00N 41°22' E 002°11'0 0.0
2018-Oct-18 09:30N 41°22' E 002°11'0 0.0
2018-Oct-18 09:00N 41°22' E 002°11'0 0.0
2018-Oct-18 08:30N 41°22' E 002°11'0 0.1
2018-Oct-18 08:00N 41°22' E 002°11'0 0.0
2018-Oct-18 07:30N 41°22' E 002°11'0 0.0
2018-Oct-18 07:03N 41°22' E 002°11'0 0.0
2018-Oct-18 07:00N 41°22' E 002°11'0 0.0
2018-Oct-18 06:30N 41°22' E 002°11'0 0.0
2018-Oct-18 06:03N 41°22' E 002°11'0 0.0
2018-Oct-18 06:00N 41°22' E 002°11'0 0.0
2018-Oct-18 05:30N 41°22' E 002°11'0 0.0
2018-Oct-18 05:03N 41°22' E 002°11'0 0.0
2018-Oct-18 05:00N 41°22' E 002°11'0 0.0
2018-Oct-18 04:30N 41°22' E 002°11'0 0.1
2018-Oct-18 04:03N 41°22' E 002°11'0 1.3
2018-Oct-18 04:00N 41°22' E 002°11'2 4.4
2018-Oct-18 03:30N 41°20' E 002°10'410.0
2018-Oct-18 03:04N 41°15' E 002°13'114.4
2018-Oct-18 03:01N 41°15' E 002°13'714.9
2018-Oct-18 02:31N 41°19' E 002°22'715.1
2018-Oct-18 02:04N 41°22' E 002°30'115.1
2018-Oct-18 02:00N 41°22' E 002°31'3014.6
2018-Oct-18 00:00N 41°36' E 003°06'12916.6 020 / 201009.010.8 19.019.022.0
2018-Oct-17 16:13N 43°08' E 005°07'317.2
2018-Oct-17 16:03N 43°11' E 005°08'117.2
2018-Oct-17 16:00N 43°12' E 005°08'12 1.4
2018-Oct-17 07:34N 43°21' E 005°20'0 0.0
2018-Oct-17 07:16N 43°21' E 005°20'0 0.0
2018-Oct-17 06:34N 43°21' E 005°20'0 0.0
2018-Oct-17 06:16N 43°21' E 005°20'0 0.0
2018-Oct-17 05:46N 43°21' E 005°20'0 0.3
2018-Oct-17 05:15N 43°21' E 005°20'0 0.3
2018-Oct-17 05:03N 43°21' E 005°20'0 2.4
2018-Oct-17 05:00N 43°21' E 005°20'2 4.6
2018-Oct-17 04:30N 43°20' E 005°17'510.2
2018-Oct-17 04:03N 43°17' E 005°12'115.7
2018-Oct-17 04:00N 43°16' E 005°11'816.9
2018-Oct-17 03:30N 43°08' E 005°11'6618.7
2018-Oct-17 00:00N 42°06' E 005°42'5719.1 040 / 321012.0 5.4 19.019.022.0
2018-Oct-16 21:00N 41°18' E 006°24'35917.1 060 / 221012.0 21.018.023.0
2018-Oct-16 00:00N 37°06' E 011°54'4916.5 120 / 141011.010.8 21.021.022.0
2018-Oct-15 21:00N 36°42' E 012°48'148 7.1 150 / 121012.0 22.019.024.0
2018-Oct-15 00:00N 35°54' E 015°42'8313.8 190 / 381007.0 5.4 22.022.023.0
2018-Oct-14 18:00N 35°54' E 017°24'24813.8 150 / 91011.0 21.019.521.0
2018-Oct-14 00:00N 36°00' E 022°30'108 4.5 060 / 191016.010.8 21.019.521.0
2018-Oct-13 00:00N 36°18' E 024°42'49 8.9 350 / 211014.010.8 20.016.920.0
2018-Oct-12 18:29N 37°05' E 024°57'4 9.0
2018-Oct-12 18:03N 37°09' E 024°59'0 9.0
2018-Oct-12 18:01N 37°09' E 024°59'5 9.1
2018-Oct-12 17:31N 37°14' E 025°01'4 9.5
2018-Oct-12 17:04N 37°17' E 025°04'1 9.3
2018-Oct-12 17:00N 37°18' E 025°04'4 9.3
2018-Oct-12 16:31N 37°22' E 025°07'4 7.8
2018-Oct-12 16:04N 37°25' E 025°09'0 7.9
2018-Oct-12 16:01N 37°25' E 025°09'4 8.3
2018-Oct-12 15:31N 37°28' E 025°14'4 9.1
2018-Oct-12 15:03N 37°27' E 025°19'0 6.6
2018-Oct-12 15:01N 37°27' E 025°19'0 0.5
2018-Oct-12 14:30N 37°28' E 025°19'0 0.0
2018-Oct-12 14:00N 37°28' E 025°19'0 0.0
2018-Oct-12 13:30N 37°28' E 025°19'0 0.1
2018-Oct-12 13:00N 37°28' E 025°19'0 0.0
2018-Oct-12 12:30N 37°28' E 025°19'0 0.1
2018-Oct-12 12:03N 37°28' E 025°19'0 0.1
2018-Oct-12 12:00N 37°28' E 025°19'0 0.0
2018-Oct-12 11:30N 37°28' E 025°19'0 0.0
2018-Oct-12 11:03N 37°28' E 025°19'0 0.5
2018-Oct-12 11:00N 37°28' E 025°19'0 0.0
2018-Oct-12 10:30N 37°28' E 025°19'0 0.0
2018-Oct-12 10:03N 37°28' E 025°19'0 0.1
2018-Oct-12 10:00N 37°28' E 025°19'0 0.1
2018-Oct-12 09:30N 37°28' E 025°19'0 0.1
2018-Oct-12 09:03N 37°28' E 025°19'0 0.3
2018-Oct-12 09:00N 37°28' E 025°19'0 0.0
2018-Oct-12 08:30N 37°28' E 025°19'0 0.0
2018-Oct-12 08:03N 37°28' E 025°19'0 0.4
2018-Oct-12 08:00N 37°28' E 025°19'0 0.0
2018-Oct-12 07:30N 37°28' E 025°19'0 0.0
2018-Oct-12 07:03N 37°28' E 025°19'0 0.2
2018-Oct-12 07:00N 37°28' E 025°19'0 0.0
2018-Oct-12 06:30N 37°28' E 025°19'0 0.1
2018-Oct-12 06:03N 37°28' E 025°19'0 0.1
2018-Oct-12 06:00N 37°28' E 025°19'0 0.0
2018-Oct-12 05:30N 37°28' E 025°19'0 0.0
2018-Oct-12 05:03N 37°28' E 025°19'0 0.0
2018-Oct-12 04:57N 37°28' E 025°19'0 0.0
2018-Oct-12 04:27N 37°28' E 025°19'0 0.1
2018-Oct-12 04:03N 37°28' E 025°19'0 0.5
2018-Oct-12 04:00N 37°28' E 025°19'0 0.8
2018-Oct-12 03:30N 37°27' E 025°19'4 9.3
2018-Oct-12 03:03N 37°28' E 025°14'112.1
2018-Oct-12 03:00N 37°28' E 025°13'611.4
2018-Oct-12 02:30N 37°24' E 025°07'612.2
2018-Oct-12 02:03N 37°20' E 025°02'112.2
2018-Oct-12 02:00N 37°20' E 025°01'613.1
2018-Oct-12 01:30N 37°19' E 024°53'613.0
2018-Oct-12 01:03N 37°18' E 024°46'1917.5
2018-Oct-12 00:00N 37°12' E 024°24'30 6.2 010 / 321014.010.8 19.015.920.0
2018-Oct-11 19:12N 37°13' E 023°47'912.0
2018-Oct-11 18:26N 37°22' E 023°45'612.0
2018-Oct-11 17:59N 37°28' E 023°44'611.9
2018-Oct-11 17:30N 37°33' E 023°44'511.8
2018-Oct-11 17:03N 37°38' E 023°43'111.9
2018-Oct-11 17:00N 37°39' E 023°42'611.8
2018-Oct-11 16:30N 37°44' E 023°39'511.7
2018-Oct-11 16:03N 37°49' E 023°37'111.8
2018-Oct-11 16:00N 37°50' E 023°37'611.9
2018-Oct-11 15:30N 37°56' E 023°37'1 3.1
2018-Oct-11 15:03N 37°56' E 023°38'0 0.1
2018-Oct-11 14:58N 37°56' E 023°38'0 0.0
2018-Oct-11 14:01N 37°56' E 023°38'0 0.0
2018-Oct-11 13:28N 37°56' E 023°38'0 0.0
2018-Oct-11 13:01N 37°56' E 023°38'0 0.0
2018-Oct-11 12:58N 37°56' E 023°38'0 0.0
2018-Oct-11 12:28N 37°56' E 023°38'0 0.0
2018-Oct-11 12:01N 37°56' E 023°38'0 0.0
2018-Oct-11 11:58N 37°56' E 023°38'0 0.0
2018-Oct-11 11:28N 37°56' E 023°38'0 0.0
2018-Oct-11 11:01N 37°56' E 023°38'0 0.0
2018-Oct-11 10:58N 37°56' E 023°38'0 0.0
2018-Oct-11 10:28N 37°56' E 023°38'0 0.0
2018-Oct-11 10:01N 37°56' E 023°38'0 0.0
2018-Oct-11 09:58N 37°56' E 023°38'0 0.0
2018-Oct-11 09:28N 37°56' E 023°38'0 0.0
2018-Oct-11 09:01N 37°56' E 023°38'0 0.0
2018-Oct-11 08:58N 37°56' E 023°38'0 0.0
2018-Oct-11 08:09N 37°56' E 023°38'0 0.1
2018-Oct-11 08:00N 37°56' E 023°38'0 0.0
2018-Oct-11 07:30N 37°56' E 023°38'0 0.0
2018-Oct-11 07:00N 37°56' E 023°38'0 0.0
2018-Oct-11 06:30N 37°56' E 023°38'0 0.0
2018-Oct-11 06:03N 37°56' E 023°38'0 0.0
2018-Oct-11 06:00N 37°56' E 023°38'0 0.0
2018-Oct-11 05:30N 37°56' E 023°38'0 0.0
2018-Oct-11 05:03N 37°56' E 023°38'0 0.0
2018-Oct-11 05:00N 37°56' E 023°38'0 0.0
2018-Oct-11 04:30N 37°56' E 023°38'0 0.0
2018-Oct-11 04:03N 37°56' E 023°38'0 0.0
2018-Oct-11 04:00N 37°56' E 023°38'0 0.3
2018-Oct-11 03:30N 37°57' E 023°38'2 3.9
2018-Oct-11 03:03N 37°55' E 023°36'0 0.0
2018-Oct-11 03:00N 37°55' E 023°36'2 3.7
2018-Oct-11 02:30N 37°54' E 023°37'613.3
2018-Oct-11 02:03N 37°49' E 023°41'113.9
2018-Oct-11 02:00N 37°48' E 023°41'714.9
2018-Oct-11 01:30N 37°41' E 023°45'714.6
2018-Oct-11 01:03N 37°35' E 023°46'114.2
2018-Oct-11 01:00N 37°34' E 023°46'714.1
2018-Oct-11 00:30N 37°27' E 023°46'714.3
2018-Oct-11 00:03N 37°20' E 023°45'114.0
2018-Oct-11 00:00N 37°20' E 023°44'2425.1
2018-Oct-11 00:00N 37°18' E 023°42'511.0 010 / 301016.010.8 20.011.620.0
2018-Oct-10 23:30N 37°13' E 023°43'6213.8
2018-Oct-10 19:00N 36°18' E 023°06'   030 / 24 21.014.6
Track history (hours):
 
Tides and Currents Weather Stations Pressure Air Temp Water Temp Dewpoint Dewpoint Depression Visibility Wind Speed Wind Dir Waves Ship Positions

Vision of The Seas

Operator: Royal Caribbean Cruises Ltd

Last reported at 2018-Oct-20 00:00 UTC. Time now 2018-Oct-20 13:11 UTC.
Position N 36°24' W 002°18'.

Type: Passenger vessel. MMSI: 311321000.

Wind from 080 at 26 knots

Barometer 1011.0 mb
Air temperature 19.0 ° C
Visibility: greater than 10.8 NM
Dewpoint 17.5 ° C
Water temperature 23.0 ° C

Date/timePositionNaut miles runAvg speedWind from/ knotsBaromVisibWave heightAir tempDewpointWater temp
2018-Oct-20 00:00N 36°24' W 002°18'4515.1 080 / 261011.010.8 19.017.523.0
2018-Oct-19 21:00N 36°48' W 001°30'4318.1 070 / 12 21.018.021.0
2018-Oct-19 18:36N 37°26' W 001°04'11 1.1
2018-Oct-19 08:50N 37°36' W 000°59'1 3.5
2018-Oct-19 08:28N 37°34' W 000°59'410.3
2018-Oct-19 08:02N 37°32' W 000°55'015.5
2018-Oct-19 08:00N 37°31' W 000°54'816.0
2018-Oct-19 07:30N 37°31' W 000°44'716.1
2018-Oct-19 07:03N 37°34' W 000°36'116.1
2018-Oct-19 07:00N 37°34' W 000°35'1017.1
2018-Oct-19 06:26N 37°41' W 000°26'615.0
2018-Oct-19 06:03N 37°45' W 000°21'116.6
2018-Oct-19 06:00N 37°45' W 000°20'916.7
2018-Oct-19 05:28N 37°52' W 000°13'1016.9
2018-Oct-19 04:52N 38°00' W 000°05'8517.5
2018-Oct-19 00:00N 39°12' E 000°54'11216.7 350 / 101006.0 5.4 20.020.022.0
2018-Oct-18 17:17N 40°53' E 001°56'416.9
2018-Oct-18 17:02N 40°57' E 001°59'017.0
2018-Oct-18 17:00N 40°57' E 001°59'917.3
2018-Oct-18 16:30N 41°05' E 002°05'817.6
2018-Oct-18 16:03N 41°12' E 002°09'117.9
2018-Oct-18 16:00N 41°13' E 002°09'713.7
2018-Oct-18 15:30N 41°20' E 002°10'2 4.2
2018-Oct-18 15:03N 41°22' E 002°11'0 0.0
2018-Oct-18 15:00N 41°22' E 002°11'0 0.0
2018-Oct-18 14:30N 41°22' E 002°11'0 0.0
2018-Oct-18 14:00N 41°22' E 002°11'0 0.0
2018-Oct-18 13:30N 41°22' E 002°11'0 0.0
2018-Oct-18 13:03N 41°22' E 002°11'0 0.0
2018-Oct-18 13:00N 41°22' E 002°11'0 0.0
2018-Oct-18 12:30N 41°22' E 002°11'0 0.0
2018-Oct-18 12:03N 41°22' E 002°11'0 0.0
2018-Oct-18 12:00N 41°22' E 002°11'0 0.0
2018-Oct-18 11:30N 41°22' E 002°11'0 0.0
2018-Oct-18 11:03N 41°22' E 002°11'0 0.0
2018-Oct-18 11:00N 41°22' E 002°11'0 0.0
2018-Oct-18 10:30N 41°22' E 002°11'0 0.0
2018-Oct-18 10:03N 41°22' E 002°11'0 0.0
2018-Oct-18 10:00N 41°22' E 002°11'0 0.0
2018-Oct-18 09:30N 41°22' E 002°11'0 0.0
2018-Oct-18 09:00N 41°22' E 002°11'0 0.0
2018-Oct-18 08:30N 41°22' E 002°11'0 0.1
2018-Oct-18 08:00N 41°22' E 002°11'0 0.0
2018-Oct-18 07:30N 41°22' E 002°11'0 0.0
2018-Oct-18 07:03N 41°22' E 002°11'0 0.0
2018-Oct-18 07:00N 41°22' E 002°11'0 0.0
2018-Oct-18 06:30N 41°22' E 002°11'0 0.0
2018-Oct-18 06:03N 41°22' E 002°11'0 0.0
2018-Oct-18 06:00N 41°22' E 002°11'0 0.0
2018-Oct-18 05:30N 41°22' E 002°11'0 0.0
2018-Oct-18 05:03N 41°22' E 002°11'0 0.0
2018-Oct-18 05:00N 41°22' E 002°11'0 0.0
2018-Oct-18 04:30N 41°22' E 002°11'0 0.1
2018-Oct-18 04:03N 41°22' E 002°11'0 1.3
2018-Oct-18 04:00N 41°22' E 002°11'2 4.4
2018-Oct-18 03:30N 41°20' E 002°10'410.0
2018-Oct-18 03:04N 41°15' E 002°13'114.4
2018-Oct-18 03:01N 41°15' E 002°13'714.9
2018-Oct-18 02:31N 41°19' E 002°22'715.1
2018-Oct-18 02:04N 41°22' E 002°30'115.1
2018-Oct-18 02:00N 41°22' E 002°31'3014.6
2018-Oct-18 00:00N 41°36' E 003°06'12916.6 020 / 201009.010.8 19.019.022.0
2018-Oct-17 16:13N 43°08' E 005°07'317.2
2018-Oct-17 16:03N 43°11' E 005°08'117.2
2018-Oct-17 16:00N 43°12' E 005°08'12 1.4
2018-Oct-17 07:34N 43°21' E 005°20'0 0.0
2018-Oct-17 07:16N 43°21' E 005°20'0 0.0
2018-Oct-17 06:34N 43°21' E 005°20'0 0.0
2018-Oct-17 06:16N 43°21' E 005°20'0 0.0
2018-Oct-17 05:46N 43°21' E 005°20'0 0.3
2018-Oct-17 05:15N 43°21' E 005°20'0 0.3
2018-Oct-17 05:03N 43°21' E 005°20'0 2.4
2018-Oct-17 05:00N 43°21' E 005°20'2 4.6
2018-Oct-17 04:30N 43°20' E 005°17'510.2
2018-Oct-17 04:03N 43°17' E 005°12'115.7
2018-Oct-17 04:00N 43°16' E 005°11'816.9
2018-Oct-17 03:30N 43°08' E 005°11'6618.7
2018-Oct-17 00:00N 42°06' E 005°42'5719.1 040 / 321012.0 5.4 19.019.022.0
2018-Oct-16 21:00N 41°18' E 006°24'35917.1 060 / 221012.0 21.018.023.0
2018-Oct-16 00:00N 37°06' E 011°54'4916.5 120 / 141011.010.8 21.021.022.0
2018-Oct-15 21:00N 36°42' E 012°48'148 7.1 150 / 121012.0 22.019.024.0
2018-Oct-15 00:00N 35°54' E 015°42'8313.8 190 / 381007.0 5.4 22.022.023.0
2018-Oct-14 18:00N 35°54' E 017°24'24813.8 150 / 91011.0 21.019.521.0
2018-Oct-14 00:00N 36°00' E 022°30'108 4.5 060 / 191016.010.8 21.019.521.0
2018-Oct-13 00:00N 36°18' E 024°42'49 8.9 350 / 211014.010.8 20.016.920.0
2018-Oct-12 18:29N 37°05' E 024°57'4 9.0
2018-Oct-12 18:03N 37°09' E 024°59'0 9.0
2018-Oct-12 18:01N 37°09' E 024°59'5 9.1
2018-Oct-12 17:31N 37°14' E 025°01'4 9.5
2018-Oct-12 17:04N 37°17' E 025°04'1 9.3
2018-Oct-12 17:00N 37°18' E 025°04'4 9.3
2018-Oct-12 16:31N 37°22' E 025°07'4 7.8
2018-Oct-12 16:04N 37°25' E 025°09'0 7.9
2018-Oct-12 16:01N 37°25' E 025°09'4 8.3
2018-Oct-12 15:31N 37°28' E 025°14'4 9.1
2018-Oct-12 15:03N 37°27' E 025°19'0 6.6
2018-Oct-12 15:01N 37°27' E 025°19'0 0.5
2018-Oct-12 14:30N 37°28' E 025°19'0 0.0
2018-Oct-12 14:00N 37°28' E 025°19'0 0.0
2018-Oct-12 13:30N 37°28' E 025°19'0 0.1
2018-Oct-12 13:00N 37°28' E 025°19'0 0.0
2018-Oct-12 12:30N 37°28' E 025°19'0 0.1
2018-Oct-12 12:03N 37°28' E 025°19'0 0.1
2018-Oct-12 12:00N 37°28' E 025°19'0 0.0
2018-Oct-12 11:30N 37°28' E 025°19'0 0.0
2018-Oct-12 11:03N 37°28' E 025°19'0 0.5
2018-Oct-12 11:00N 37°28' E 025°19'0 0.0
2018-Oct-12 10:30N 37°28' E 025°19'0 0.0
2018-Oct-12 10:03N 37°28' E 025°19'0 0.1
2018-Oct-12 10:00N 37°28' E 025°19'0 0.1
2018-Oct-12 09:30N 37°28' E 025°19'0 0.1
2018-Oct-12 09:03N 37°28' E 025°19'0 0.3
2018-Oct-12 09:00N 37°28' E 025°19'0 0.0
2018-Oct-12 08:30N 37°28' E 025°19'0 0.0
2018-Oct-12 08:03N 37°28' E 025°19'0 0.4
2018-Oct-12 08:00N 37°28' E 025°19'0 0.0
2018-Oct-12 07:30N 37°28' E 025°19'0 0.0
2018-Oct-12 07:03N 37°28' E 025°19'0 0.2
2018-Oct-12 07:00N 37°28' E 025°19'0 0.0
2018-Oct-12 06:30N 37°28' E 025°19'0 0.1
2018-Oct-12 06:03N 37°28' E 025°19'0 0.1
2018-Oct-12 06:00N 37°28' E 025°19'0 0.0
2018-Oct-12 05:30N 37°28' E 025°19'0 0.0
2018-Oct-12 05:03N 37°28' E 025°19'0 0.0
2018-Oct-12 04:57N 37°28' E 025°19'0 0.0
2018-Oct-12 04:27N 37°28' E 025°19'0 0.1
2018-Oct-12 04:03N 37°28' E 025°19'0 0.5
2018-Oct-12 04:00N 37°28' E 025°19'0 0.8
2018-Oct-12 03:30N 37°27' E 025°19'4 9.3
2018-Oct-12 03:03N 37°28' E 025°14'112.1
2018-Oct-12 03:00N 37°28' E 025°13'611.4
2018-Oct-12 02:30N 37°24' E 025°07'612.2
2018-Oct-12 02:03N 37°20' E 025°02'112.2
2018-Oct-12 02:00N 37°20' E 025°01'613.1
2018-Oct-12 01:30N 37°19' E 024°53'613.0
2018-Oct-12 01:03N 37°18' E 024°46'1917.5
2018-Oct-12 00:00N 37°12' E 024°24'30 6.2 010 / 321014.010.8 19.015.920.0
2018-Oct-11 19:12N 37°13' E 023°47'912.0
2018-Oct-11 18:26N 37°22' E 023°45'612.0
2018-Oct-11 17:59N 37°28' E 023°44'611.9
2018-Oct-11 17:30N 37°33' E 023°44'511.8
2018-Oct-11 17:03N 37°38' E 023°43'111.9
2018-Oct-11 17:00N 37°39' E 023°42'611.8
2018-Oct-11 16:30N 37°44' E 023°39'511.7
2018-Oct-11 16:03N 37°49' E 023°37'111.8
2018-Oct-11 16:00N 37°50' E 023°37'611.9
2018-Oct-11 15:30N 37°56' E 023°37'1 3.1
2018-Oct-11 15:03N 37°56' E 023°38'0 0.1
2018-Oct-11 14:58N 37°56' E 023°38'0 0.0
2018-Oct-11 14:01N 37°56' E 023°38'0 0.0
2018-Oct-11 13:28N 37°56' E 023°38'0 0.0
2018-Oct-11 13:01N 37°56' E 023°38'0 0.0
2018-Oct-11 12:58N 37°56' E 023°38'0 0.0
2018-Oct-11 12:28N 37°56' E 023°38'0 0.0
2018-Oct-11 12:01N 37°56' E 023°38'0 0.0
2018-Oct-11 11:58N 37°56' E 023°38'0 0.0
2018-Oct-11 11:28N 37°56' E 023°38'0 0.0
2018-Oct-11 11:01N 37°56' E 023°38'0 0.0
2018-Oct-11 10:58N 37°56' E 023°38'0 0.0
2018-Oct-11 10:28N 37°56' E 023°38'0 0.0
2018-Oct-11 10:01N 37°56' E 023°38'0 0.0
2018-Oct-11 09:58N 37°56' E 023°38'0 0.0
2018-Oct-11 09:28N 37°56' E 023°38'0 0.0
2018-Oct-11 09:01N 37°56' E 023°38'0 0.0
2018-Oct-11 08:58N 37°56' E 023°38'0 0.0
2018-Oct-11 08:09N 37°56' E 023°38'0 0.1
2018-Oct-11 08:00N 37°56' E 023°38'0 0.0
2018-Oct-11 07:30N 37°56' E 023°38'0 0.0
2018-Oct-11 07:00N 37°56' E 023°38'0 0.0
2018-Oct-11 06:30N 37°56' E 023°38'0 0.0
2018-Oct-11 06:03N 37°56' E 023°38'0 0.0
2018-Oct-11 06:00N 37°56' E 023°38'0 0.0
2018-Oct-11 05:30N 37°56' E 023°38'0 0.0
2018-Oct-11 05:03N 37°56' E 023°38'0 0.0
2018-Oct-11 05:00N 37°56' E 023°38'0 0.0
2018-Oct-11 04:30N 37°56' E 023°38'0 0.0
2018-Oct-11 04:03N 37°56' E 023°38'0 0.0
2018-Oct-11 04:00N 37°56' E 023°38'0 0.3
2018-Oct-11 03:30N 37°57' E 023°38'2 3.9
2018-Oct-11 03:03N 37°55' E 023°36'0 0.0
2018-Oct-11 03:00N 37°55' E 023°36'2 3.7
2018-Oct-11 02:30N 37°54' E 023°37'613.3
2018-Oct-11 02:03N 37°49' E 023°41'113.9
2018-Oct-11 02:00N 37°48' E 023°41'714.9
2018-Oct-11 01:30N 37°41' E 023°45'714.6
2018-Oct-11 01:03N 37°35' E 023°46'114.2
2018-Oct-11 01:00N 37°34' E 023°46'714.1
2018-Oct-11 00:30N 37°27' E 023°46'714.3
2018-Oct-11 00:03N 37°20' E 023°45'114.0
2018-Oct-11 00:00N 37°20' E 023°44'2425.1
2018-Oct-11 00:00N 37°18' E 023°42'511.0 010 / 301016.010.8 20.011.620.0
2018-Oct-10 23:30N 37°13' E 023°43'6213.8
2018-Oct-10 19:00N 36°18' E 023°06'   030 / 24 21.014.6

Dump ship's entire track history